Observations for EXETER AIRPORT, United Kingdom (EGTE)

EGTE 231050Z 20008KT 9999 FEW010 BKN015 16/14 Q1016 
EGTE 231020Z 21008KT 9999 FEW008 BKN016 16/14 Q1016 
EGTE 230950Z 21006KT 9999 FEW007 SCT018 16/14 Q1016 
EGTE 230920Z 20005KT 9999 FEW007 SCT020 15/14 Q1016 
EGTE 230850Z 19006KT 9999 FEW005 SCT020 15/14 Q1016 
EGTE 230820Z 18005KT 9999 FEW005 SCT020 14/13 Q1016 
EGTE 230750Z 21009KT 9999 FEW005 SCT024 14/13 Q1016 
EGTE 230720Z 21008KT 9999 FEW010 SCT024 14/13 Q1016 
EGTE 230650Z 21007KT 9999 -DZRA FEW010 BKN025 13/13 Q1016   
EGTE 230620Z 20008KT 160V220 9999 -DZRA BKN010 13/12 Q1016  
EGTE 230550Z 18009KT 9999 BKN010 13/12 Q1016
EGTE 230520Z 18008KT 9999 BKN010 13/12 Q1017
EGTE 230450Z 19009KT 9999 SCT010 SCT040 12/11 Q1017 
EGTE 230420Z 19008KT 9999 -DZRA FEW012 BKN042 12/11 Q1017   
EGTE 230120Z 19007KT 9999 -RA FEW012 SCT034 11/10 Q1019 
EGTE 230050Z 20007KT 9999 -RA FEW012 SCT035 11/10 Q1019 
EGTE 230020Z 21006KT 9999 -RA FEW012 SCT042 11/09 Q1019 
EGTE 222350Z 23006KT 9999 SCT040 11/09 Q1019
EGTE 222320Z 22007KT 9999 SCT035 11/09 Q1019
EGTE 222250Z 20006KT 9999 SCT035 11/09 Q1019
EGTE 222220Z 20006KT 9999 SCT040 11/09 Q1020
EGTE 222150Z 20005KT 9999 SCT040 11/09 Q1020
EGTE 222120Z 21006KT 9999 SCT040 11/09 Q1020
EGTE 222050Z 20004KT 170V230 9999 SCT040 11/09 Q1020
EGTE 222020Z 25006KT 230V290 9999 SCT040 11/08 Q1020
EGTE 221950Z 26007KT 240V300 9999 SCT035 11/09 Q1020
EGTE 221920Z 22005KT 190V250 9999 SCT035 11/08 Q1020
EGTE 221850Z 25009KT 9999 SCT035 11/08 Q1020
EGTE 221820Z 25013KT 230V290 9999 BKN035 11/08 Q1020
EGTE 221750Z 26011KT 9999 FEW030 BKN045 12/08 Q1019 
EGTE 221720Z 26009KT 9999 FEW030 BKN045 12/08 Q1019 
EGTE 221650Z 27009KT 9999 FEW030 BKN045 12/07 Q1019 
EGTE 221620Z 27010KT 240V300 9999 FEW030 BKN045 12/07 Q1019 
EGTE 221550Z 28012KT 9999 FEW020 SCT030 12/08 Q1018 
EGTE 221520Z 28013KT 240V300 9999 FEW020 SCT030 13/07 Q1018 
EGTE 221450Z 28015KT 9999 FEW020 SCT030 13/08 Q1018 
EGTE 221420Z 29017KT 250V310 9999 FEW015 SCT025 13/08 Q1018 
EGTE 221350Z 29015G28KT 250V310 9999 FEW015 SCT025 13/08 Q1018  
EGTE 221320Z 27014KT 240V300 9999 SCT025 14/08 Q1018
EGTE 221250Z 28017G28KT 250V310 9999 VCSH SCT015 13/09 Q1018
EGTE 221220Z 28018G29KT 240V310 9999 -SHRA FEW015 SCT025 13/09 Q1017
EGTE 221150Z 28012KT 250V310 9999 VCSH FEW015 SCT024 12/09 Q1017
EGTE 221120Z 29017KT 260V320 9999 -SHRA FEW015 SCT025 12/08 Q1017   
EGTE 221050Z 29016KT 250V330 9999 SCT025 12/08 Q1017
EGTE 221020Z 29018KT 260V330 9999 SCT025 12/07 Q1017